sensor_id;sensor_type;location;lat;lon;timestamp;P1;durP1;ratioP1;P2;durP2;ratioP2
60502;SDS011;51448;51.660;5.824;2023-06-10T00:02:20;7.80;;;5.80;;
60502;SDS011;51448;51.660;5.824;2023-06-10T00:05:08;7.38;;;5.30;;
60502;SDS011;51448;51.660;5.824;2023-06-10T00:07:57;9.38;;;5.78;;
60502;SDS011;51448;51.660;5.824;2023-06-10T00:10:45;7.25;;;5.43;;
60502;SDS011;51448;51.660;5.824;2023-06-10T00:13:33;8.98;;;5.95;;
60502;SDS011;51448;51.660;5.824;2023-06-10T00:16:21;9.40;;;6.20;;
60502;SDS011;51448;51.660;5.824;2023-06-10T00:19:09;7.38;;;5.45;;
60502;SDS011;51448;51.660;5.824;2023-06-10T00:24:48;10.90;;;6.90;;
60502;SDS011;51448;51.660;5.824;2023-06-10T00:27:36;9.30;;;6.47;;
60502;SDS011;51448;51.660;5.824;2023-06-10T00:30:24;8.82;;;6.15;;
60502;SDS011;51448;51.660;5.824;2023-06-10T00:33:12;9.82;;;6.82;;
60502;SDS011;51448;51.660;5.824;2023-06-10T00:36:00;10.00;;;7.35;;
60502;SDS011;51448;51.660;5.824;2023-06-10T00:38:48;10.88;;;6.93;;
60502;SDS011;51448;51.660;5.824;2023-06-10T00:41:36;8.30;;;6.72;;
60502;SDS011;51448;51.660;5.824;2023-06-10T00:44:24;9.30;;;6.80;;
60502;SDS011;51448;51.660;5.824;2023-06-10T00:47:11;8.68;;;6.97;;
60502;SDS011;51448;51.660;5.824;2023-06-10T00:50:00;9.63;;;6.82;;
60502;SDS011;51448;51.660;5.824;2023-06-10T00:52:47;9.70;;;6.85;;
60502;SDS011;51448;51.660;5.824;2023-06-10T00:55:36;9.75;;;7.22;;
60502;SDS011;51448;51.660;5.824;2023-06-10T00:58:24;9.43;;;6.78;;
60502;SDS011;51448;51.660;5.824;2023-06-10T01:01:13;12.23;;;7.18;;
60502;SDS011;51448;51.660;5.824;2023-06-10T01:04:01;9.43;;;7.28;;
60502;SDS011;51448;51.660;5.824;2023-06-10T01:10:08;9.68;;;7.07;;
60502;SDS011;51448;51.660;5.824;2023-06-10T01:16:03;10.60;;;7.72;;
60502;SDS011;51448;51.660;5.824;2023-06-10T01:18:52;10.27;;;7.78;;
60502;SDS011;51448;51.660;5.824;2023-06-10T01:21:41;10.70;;;8.15;;
60502;SDS011;51448;51.660;5.824;2023-06-10T01:24:32;11.23;;;8.10;;
60502;SDS011;51448;51.660;5.824;2023-06-10T01:27:21;10.13;;;7.95;;
60502;SDS011;51448;51.660;5.824;2023-06-10T01:30:17;9.27;;;7.38;;
60502;SDS011;51448;51.660;5.824;2023-06-10T01:33:10;10.75;;;7.82;;
60502;SDS011;51448;51.660;5.824;2023-06-10T01:36:02;9.60;;;7.68;;
60502;SDS011;51448;51.660;5.824;2023-06-10T01:38:51;10.48;;;7.72;;
60502;SDS011;51448;51.660;5.824;2023-06-10T01:41:41;9.48;;;8.00;;
60502;SDS011;51448;51.660;5.824;2023-06-10T01:44:30;9.07;;;7.65;;
60502;SDS011;51448;51.660;5.824;2023-06-10T01:47:17;10.68;;;8.10;;
60502;SDS011;51448;51.660;5.824;2023-06-10T01:50:05;12.95;;;8.70;;
60502;SDS011;51448;51.660;5.824;2023-06-10T01:52:56;11.60;;;9.02;;
60502;SDS011;51448;51.660;5.824;2023-06-10T01:55:47;11.90;;;8.32;;
60502;SDS011;51448;51.660;5.824;2023-06-10T01:58:36;10.70;;;8.05;;
60502;SDS011;51448;51.660;5.824;2023-06-10T02:01:25;10.63;;;8.52;;
60502;SDS011;51448;51.660;5.824;2023-06-10T02:04:13;11.27;;;8.57;;
60502;SDS011;51448;51.660;5.824;2023-06-10T02:07:02;9.40;;;8.40;;
60502;SDS011;51448;51.660;5.824;2023-06-10T02:09:51;9.95;;;8.20;;
60502;SDS011;51448;51.660;5.824;2023-06-10T02:12:39;9.93;;;8.30;;
60502;SDS011;51448;51.660;5.824;2023-06-10T02:15:27;10.23;;;8.65;;
60502;SDS011;51448;51.660;5.824;2023-06-10T02:18:15;11.05;;;8.25;;
60502;SDS011;51448;51.660;5.824;2023-06-10T02:21:03;11.25;;;8.88;;
60502;SDS011;51448;51.660;5.824;2023-06-10T02:23:51;10.02;;;8.77;;
60502;SDS011;51448;51.660;5.824;2023-06-10T02:26:38;12.27;;;9.70;;
60502;SDS011;51448;51.660;5.824;2023-06-10T02:29:28;12.02;;;9.00;;
60502;SDS011;51448;51.660;5.824;2023-06-10T02:32:16;10.73;;;7.88;;
60502;SDS011;51448;51.660;5.824;2023-06-10T02:35:04;10.23;;;8.90;;
60502;SDS011;51448;51.660;5.824;2023-06-10T02:37:54;11.18;;;8.48;;
60502;SDS011;51448;51.660;5.824;2023-06-10T02:40:42;10.60;;;8.18;;
60502;SDS011;51448;51.660;5.824;2023-06-10T02:43:32;9.75;;;8.10;;
60502;SDS011;51448;51.660;5.824;2023-06-10T02:46:20;11.57;;;8.40;;
60502;SDS011;51448;51.660;5.824;2023-06-10T02:49:08;10.88;;;9.00;;
60502;SDS011;51448;51.660;5.824;2023-06-10T02:51:56;12.25;;;8.85;;
60502;SDS011;51448;51.660;5.824;2023-06-10T02:54:44;11.93;;;8.50;;
60502;SDS011;51448;51.660;5.824;2023-06-10T02:57:33;13.50;;;9.50;;
60502;SDS011;51448;51.660;5.824;2023-06-10T03:00:22;10.43;;;8.95;;
60502;SDS011;51448;51.660;5.824;2023-06-10T03:03:11;11.60;;;8.20;;
60502;SDS011;51448;51.660;5.824;2023-06-10T03:06:12;12.50;;;8.88;;
60502;SDS011;51448;51.660;5.824;2023-06-10T03:09:02;10.85;;;8.13;;
60502;SDS011;51448;51.660;5.824;2023-06-10T03:11:51;12.55;;;8.98;;
60502;SDS011;51448;51.660;5.824;2023-06-10T03:14:40;12.13;;;8.93;;
60502;SDS011;51448;51.660;5.824;2023-06-10T03:17:30;11.10;;;8.82;;
60502;SDS011;51448;51.660;5.824;2023-06-10T03:20:18;13.82;;;9.48;;
60502;SDS011;51448;51.660;5.824;2023-06-10T03:23:06;12.18;;;8.32;;
60502;SDS011;51448;51.660;5.824;2023-06-10T03:25:57;10.88;;;8.45;;
60502;SDS011;51448;51.660;5.824;2023-06-10T03:28:45;10.68;;;8.10;;
60502;SDS011;51448;51.660;5.824;2023-06-10T03:31:33;12.40;;;9.10;;
60502;SDS011;51448;51.660;5.824;2023-06-10T03:34:22;11.18;;;8.38;;
60502;SDS011;51448;51.660;5.824;2023-06-10T03:37:11;12.18;;;8.30;;
60502;SDS011;51448;51.660;5.824;2023-06-10T03:39:59;10.63;;;7.90;;
60502;SDS011;51448;51.660;5.824;2023-06-10T03:42:47;10.95;;;7.50;;
60502;SDS011;51448;51.660;5.824;2023-06-10T03:45:37;9.90;;;8.02;;
60502;SDS011;51448;51.660;5.824;2023-06-10T03:48:25;10.57;;;7.35;;
60502;SDS011;51448;51.660;5.824;2023-06-10T03:51:13;11.95;;;7.68;;
60502;SDS011;51448;51.660;5.824;2023-06-10T03:54:02;10.43;;;7.10;;
60502;SDS011;51448;51.660;5.824;2023-06-10T03:56:50;9.90;;;7.60;;
60502;SDS011;51448;51.660;5.824;2023-06-10T03:59:38;12.57;;;8.27;;
60502;SDS011;51448;51.660;5.824;2023-06-10T04:02:26;10.27;;;7.63;;
60502;SDS011;51448;51.660;5.824;2023-06-10T04:05:15;10.35;;;6.68;;
60502;SDS011;51448;51.660;5.824;2023-06-10T04:08:04;12.35;;;7.50;;
60502;SDS011;51448;51.660;5.824;2023-06-10T04:10:54;10.73;;;7.80;;
60502;SDS011;51448;51.660;5.824;2023-06-10T04:13:42;10.50;;;7.60;;
60502;SDS011;51448;51.660;5.824;2023-06-10T04:16:29;10.90;;;7.47;;
60502;SDS011;51448;51.660;5.824;2023-06-10T04:19:19;10.38;;;7.82;;
60502;SDS011;51448;51.660;5.824;2023-06-10T04:22:08;10.65;;;7.20;;
60502;SDS011;51448;51.660;5.824;2023-06-10T04:24:56;12.02;;;7.43;;
60502;SDS011;51448;51.660;5.824;2023-06-10T04:27:44;10.63;;;7.65;;
60502;SDS011;51448;51.660;5.824;2023-06-10T04:30:32;12.00;;;7.15;;
60502;SDS011;51448;51.660;5.824;2023-06-10T04:33:21;11.38;;;7.18;;
60502;SDS011;51448;51.660;5.824;2023-06-10T04:36:09;12.00;;;7.05;;
60502;SDS011;51448;51.660;5.824;2023-06-10T04:38:57;12.60;;;7.35;;
60502;SDS011;51448;51.660;5.824;2023-06-10T04:41:47;12.18;;;7.60;;
60502;SDS011;51448;51.660;5.824;2023-06-10T04:44:35;11.10;;;6.97;;
60502;SDS011;51448;51.660;5.824;2023-06-10T04:47:23;14.90;;;7.13;;
60502;SDS011;51448;51.660;5.824;2023-06-10T04:50:11;10.63;;;7.30;;
60502;SDS011;51448;51.660;5.824;2023-06-10T04:52:59;12.45;;;7.10;;
60502;SDS011;51448;51.660;5.824;2023-06-10T04:55:47;13.48;;;6.78;;
60502;SDS011;51448;51.660;5.824;2023-06-10T04:58:35;11.55;;;6.80;;
60502;SDS011;51448;51.660;5.824;2023-06-10T05:01:23;10.77;;;7.05;;
60502;SDS011;51448;51.660;5.824;2023-06-10T05:04:11;11.52;;;6.75;;
60502;SDS011;51448;51.660;5.824;2023-06-10T05:06:59;10.15;;;7.03;;
60502;SDS011;51448;51.660;5.824;2023-06-10T05:09:47;9.02;;;6.75;;
60502;SDS011;51448;51.660;5.824;2023-06-10T05:12:35;10.65;;;6.68;;
60502;SDS011;51448;51.660;5.824;2023-06-10T05:15:23;12.23;;;7.50;;
60502;SDS011;51448;51.660;5.824;2023-06-10T05:18:12;9.48;;;6.93;;
60502;SDS011;51448;51.660;5.824;2023-06-10T05:21:00;12.10;;;6.75;;
60502;SDS011;51448;51.660;5.824;2023-06-10T05:23:47;11.88;;;7.28;;
60502;SDS011;51448;51.660;5.824;2023-06-10T05:26:35;9.85;;;7.07;;
60502;SDS011;51448;51.660;5.824;2023-06-10T05:29:26;10.80;;;6.70;;
60502;SDS011;51448;51.660;5.824;2023-06-10T05:32:14;11.40;;;7.10;;
60502;SDS011;51448;51.660;5.824;2023-06-10T05:35:02;9.80;;;6.60;;
60502;SDS011;51448;51.660;5.824;2023-06-10T05:37:52;11.35;;;6.47;;
60502;SDS011;51448;51.660;5.824;2023-06-10T05:40:40;9.50;;;6.68;;
60502;SDS011;51448;51.660;5.824;2023-06-10T05:43:27;10.18;;;6.65;;
60502;SDS011;51448;51.660;5.824;2023-06-10T05:46:15;10.27;;;6.05;;
60502;SDS011;51448;51.660;5.824;2023-06-10T05:49:03;13.10;;;6.95;;
60502;SDS011;51448;51.660;5.824;2023-06-10T05:51:51;10.35;;;6.60;;
60502;SDS011;51448;51.660;5.824;2023-06-10T05:54:40;10.27;;;6.10;;
60502;SDS011;51448;51.660;5.824;2023-06-10T05:57:27;9.38;;;6.03;;
60502;SDS011;51448;51.660;5.824;2023-06-10T06:00:16;10.10;;;6.20;;
60502;SDS011;51448;51.660;5.824;2023-06-10T06:03:06;9.40;;;6.32;;
60502;SDS011;51448;51.660;5.824;2023-06-10T06:05:57;11.75;;;6.70;;
60502;SDS011;51448;51.660;5.824;2023-06-10T06:08:45;8.68;;;6.13;;
60502;SDS011;51448;51.660;5.824;2023-06-10T06:11:33;13.32;;;6.45;;
60502;SDS011;51448;51.660;5.824;2023-06-10T06:14:22;12.73;;;6.65;;
60502;SDS011;51448;51.660;5.824;2023-06-10T06:17:10;9.82;;;6.10;;
60502;SDS011;51448;51.660;5.824;2023-06-10T06:19:58;11.85;;;5.70;;
60502;SDS011;51448;51.660;5.824;2023-06-10T06:22:46;9.05;;;5.90;;
60502;SDS011;51448;51.660;5.824;2023-06-10T06:25:34;9.68;;;5.90;;
60502;SDS011;51448;51.660;5.824;2023-06-10T06:28:23;9.77;;;5.93;;
60502;SDS011;51448;51.660;5.824;2023-06-10T06:31:16;10.13;;;5.75;;
60502;SDS011;51448;51.660;5.824;2023-06-10T06:34:04;8.43;;;5.55;;
60502;SDS011;51448;51.660;5.824;2023-06-10T06:36:52;9.15;;;5.57;;
60502;SDS011;51448;51.660;5.824;2023-06-10T06:39:40;10.27;;;5.78;;
60502;SDS011;51448;51.660;5.824;2023-06-10T06:42:28;10.30;;;5.80;;
60502;SDS011;51448;51.660;5.824;2023-06-10T06:45:31;11.27;;;5.78;;
60502;SDS011;51448;51.660;5.824;2023-06-10T06:48:21;9.95;;;5.82;;
60502;SDS011;51448;51.660;5.824;2023-06-10T06:51:11;9.18;;;5.47;;
60502;SDS011;51448;51.660;5.824;2023-06-10T06:54:12;9.00;;;6.10;;
60502;SDS011;51448;51.660;5.824;2023-06-10T06:57:00;8.38;;;5.28;;
60502;SDS011;51448;51.660;5.824;2023-06-10T06:59:47;11.05;;;5.38;;
60502;SDS011;51448;51.660;5.824;2023-06-10T07:02:36;8.23;;;5.40;;
60502;SDS011;51448;51.660;5.824;2023-06-10T07:05:24;9.90;;;5.93;;
60502;SDS011;51448;51.660;5.824;2023-06-10T07:08:15;9.95;;;5.88;;
60502;SDS011;51448;51.660;5.824;2023-06-10T07:11:03;11.65;;;5.38;;
60502;SDS011;51448;51.660;5.824;2023-06-10T07:13:51;9.88;;;5.22;;
60502;SDS011;51448;51.660;5.824;2023-06-10T07:16:38;9.93;;;5.32;;
60502;SDS011;51448;51.660;5.824;2023-06-10T07:19:27;10.32;;;5.55;;
60502;SDS011;51448;51.660;5.824;2023-06-10T07:22:15;9.73;;;5.60;;
60502;SDS011;51448;51.660;5.824;2023-06-10T07:25:03;10.57;;;5.85;;
60502;SDS011;51448;51.660;5.824;2023-06-10T07:27:51;8.35;;;5.22;;
60502;SDS011;51448;51.660;5.824;2023-06-10T07:30:39;10.50;;;5.28;;
60502;SDS011;51448;51.660;5.824;2023-06-10T07:33:27;11.00;;;5.13;;
60502;SDS011;51448;51.660;5.824;2023-06-10T07:36:14;10.45;;;5.38;;
60502;SDS011;51448;51.660;5.824;2023-06-10T07:39:02;9.77;;;5.43;;
60502;SDS011;51448;51.660;5.824;2023-06-10T07:41:52;8.65;;;5.40;;
60502;SDS011;51448;51.660;5.824;2023-06-10T07:44:41;9.35;;;5.22;;
60502;SDS011;51448;51.660;5.824;2023-06-10T07:47:30;11.60;;;5.00;;
60502;SDS011;51448;51.660;5.824;2023-06-10T07:50:20;6.78;;;4.15;;
60502;SDS011;51448;51.660;5.824;2023-06-10T07:53:08;8.98;;;4.95;;
60502;SDS011;51448;51.660;5.824;2023-06-10T07:55:55;11.65;;;5.22;;
60502;SDS011;51448;51.660;5.824;2023-06-10T07:58:43;10.55;;;5.40;;
60502;SDS011;51448;51.660;5.824;2023-06-10T08:01:31;8.02;;;5.03;;
60502;SDS011;51448;51.660;5.824;2023-06-10T08:04:20;8.35;;;5.07;;
60502;SDS011;51448;51.660;5.824;2023-06-10T08:07:12;10.60;;;4.97;;
60502;SDS011;51448;51.660;5.824;2023-06-10T08:10:15;10.27;;;4.80;;
60502;SDS011;51448;51.660;5.824;2023-06-10T08:13:03;9.93;;;5.28;;
60502;SDS011;51448;51.660;5.824;2023-06-10T08:15:51;9.82;;;5.43;;
60502;SDS011;51448;51.660;5.824;2023-06-10T08:18:41;10.07;;;5.47;;
60502;SDS011;51448;51.660;5.824;2023-06-10T08:21:28;8.27;;;4.97;;
60502;SDS011;51448;51.660;5.824;2023-06-10T08:24:17;9.30;;;5.15;;
60502;SDS011;51448;51.660;5.824;2023-06-10T08:27:06;8.20;;;4.93;;
60502;SDS011;51448;51.660;5.824;2023-06-10T08:29:54;8.38;;;5.18;;
60502;SDS011;51448;51.660;5.824;2023-06-10T08:32:42;11.40;;;4.68;;
60502;SDS011;51448;51.660;5.824;2023-06-10T08:35:30;7.72;;;4.65;;
60502;SDS011;51448;51.660;5.824;2023-06-10T08:38:18;8.63;;;5.03;;
60502;SDS011;51448;51.660;5.824;2023-06-10T08:41:06;8.00;;;4.28;;
60502;SDS011;51448;51.660;5.824;2023-06-10T08:47:12;8.55;;;4.45;;
60502;SDS011;51448;51.660;5.824;2023-06-10T08:50:05;7.88;;;4.70;;
60502;SDS011;51448;51.660;5.824;2023-06-10T08:52:57;7.57;;;4.70;;
60502;SDS011;51448;51.660;5.824;2023-06-10T08:55:50;8.50;;;4.88;;
60502;SDS011;51448;51.660;5.824;2023-06-10T08:58:39;7.82;;;4.75;;
60502;SDS011;51448;51.660;5.824;2023-06-10T09:01:29;7.72;;;4.82;;
60502;SDS011;51448;51.660;5.824;2023-06-10T09:04:18;8.23;;;5.03;;
60502;SDS011;51448;51.660;5.824;2023-06-10T09:07:08;7.13;;;4.32;;
60502;SDS011;51448;51.660;5.824;2023-06-10T09:09:56;11.45;;;5.28;;
60502;SDS011;51448;51.660;5.824;2023-06-10T09:12:47;7.60;;;4.18;;
60502;SDS011;51448;51.660;5.824;2023-06-10T09:15:36;8.38;;;4.40;;
60502;SDS011;51448;51.660;5.824;2023-06-10T09:18:24;10.02;;;4.53;;
60502;SDS011;51448;51.660;5.824;2023-06-10T09:21:12;9.20;;;4.55;;
60502;SDS011;51448;51.660;5.824;2023-06-10T09:24:00;9.02;;;4.70;;
60502;SDS011;51448;51.660;5.824;2023-06-10T09:26:48;9.18;;;4.40;;
60502;SDS011;51448;51.660;5.824;2023-06-10T09:29:52;7.43;;;4.65;;
60502;SDS011;51448;51.660;5.824;2023-06-10T09:32:41;7.20;;;4.30;;
60502;SDS011;51448;51.660;5.824;2023-06-10T09:35:30;8.90;;;4.57;;
60502;SDS011;51448;51.660;5.824;2023-06-10T09:38:19;8.23;;;4.78;;
60502;SDS011;51448;51.660;5.824;2023-06-10T09:41:09;10.67;;;4.73;;
60502;SDS011;51448;51.660;5.824;2023-06-10T09:43:56;10.55;;;4.97;;
60502;SDS011;51448;51.660;5.824;2023-06-10T09:46:45;10.00;;;4.60;;
60502;SDS011;51448;51.660;5.824;2023-06-10T09:49:34;8.68;;;4.60;;
60502;SDS011;51448;51.660;5.824;2023-06-10T09:52:25;7.80;;;4.60;;
60502;SDS011;51448;51.660;5.824;2023-06-10T09:55:17;6.55;;;4.40;;
60502;SDS011;51448;51.660;5.824;2023-06-10T09:58:05;9.18;;;4.68;;
60502;SDS011;51448;51.660;5.824;2023-06-10T10:00:53;8.50;;;5.13;;
60502;SDS011;51448;51.660;5.824;2023-06-10T10:03:48;8.50;;;4.35;;
60502;SDS011;51448;51.660;5.824;2023-06-10T10:06:38;8.05;;;4.80;;
60502;SDS011;51448;51.660;5.824;2023-06-10T10:09:27;7.55;;;5.18;;
60502;SDS011;51448;51.660;5.824;2023-06-10T10:12:15;9.50;;;4.85;;
60502;SDS011;51448;51.660;5.824;2023-06-10T10:15:05;7.95;;;5.25;;
60502;SDS011;51448;51.660;5.824;2023-06-10T10:18:00;12.27;;;4.82;;
60502;SDS011;51448;51.660;5.824;2023-06-10T10:20:57;8.57;;;4.45;;
60502;SDS011;51448;51.660;5.824;2023-06-10T10:24:02;7.90;;;4.50;;
60502;SDS011;51448;51.660;5.824;2023-06-10T10:27:01;9.82;;;4.80;;
60502;SDS011;51448;51.660;5.824;2023-06-10T10:29:58;8.00;;;4.63;;
60502;SDS011;51448;51.660;5.824;2023-06-10T10:32:55;10.20;;;4.40;;
60502;SDS011;51448;51.660;5.824;2023-06-10T10:35:49;8.10;;;4.53;;
60502;SDS011;51448;51.660;5.824;2023-06-10T10:38:38;7.15;;;4.75;;
60502;SDS011;51448;51.660;5.824;2023-06-10T10:41:26;9.52;;;4.55;;
60502;SDS011;51448;51.660;5.824;2023-06-10T10:44:15;8.13;;;4.60;;
60502;SDS011;51448;51.660;5.824;2023-06-10T10:47:04;6.70;;;4.50;;
60502;SDS011;51448;51.660;5.824;2023-06-10T10:49:56;6.80;;;4.25;;
60502;SDS011;51448;51.660;5.824;2023-06-10T10:52:51;8.48;;;4.80;;
60502;SDS011;51448;51.660;5.824;2023-06-10T10:55:44;7.68;;;4.50;;
60502;SDS011;51448;51.660;5.824;2023-06-10T10:59:06;8.18;;;4.57;;
60502;SDS011;51448;51.660;5.824;2023-06-10T11:01:55;6.45;;;4.10;;
60502;SDS011;51448;51.660;5.824;2023-06-10T11:04:44;6.43;;;4.47;;
60502;SDS011;51448;51.660;5.824;2023-06-10T11:10:28;9.05;;;4.45;;
60502;SDS011;51448;51.660;5.824;2023-06-10T11:13:21;8.18;;;4.10;;
60502;SDS011;51448;51.660;5.824;2023-06-10T11:16:10;8.23;;;4.82;;
60502;SDS011;51448;51.660;5.824;2023-06-10T11:18:59;6.93;;;4.43;;
60502;SDS011;51448;51.660;5.824;2023-06-10T11:21:59;7.60;;;4.50;;
60502;SDS011;51448;51.660;5.824;2023-06-10T11:24:49;7.00;;;4.60;;
60502;SDS011;51448;51.660;5.824;2023-06-10T11:27:39;7.57;;;4.45;;
60502;SDS011;51448;51.660;5.824;2023-06-10T11:30:28;11.32;;;5.40;;
60502;SDS011;51448;51.660;5.824;2023-06-10T11:33:22;7.80;;;4.30;;
60502;SDS011;51448;51.660;5.824;2023-06-10T11:36:12;6.63;;;4.22;;
60502;SDS011;51448;51.660;5.824;2023-06-10T11:39:04;8.75;;;4.57;;
60502;SDS011;51448;51.660;5.824;2023-06-10T11:41:53;10.18;;;4.20;;
60502;SDS011;51448;51.660;5.824;2023-06-10T11:44:47;7.13;;;4.20;;
60502;SDS011;51448;51.660;5.824;2023-06-10T11:47:38;8.35;;;4.15;;
60502;SDS011;51448;51.660;5.824;2023-06-10T11:50:30;7.05;;;4.38;;
60502;SDS011;51448;51.660;5.824;2023-06-10T11:53:20;6.88;;;4.03;;
60502;SDS011;51448;51.660;5.824;2023-06-10T11:56:08;8.02;;;4.60;;
60502;SDS011;51448;51.660;5.824;2023-06-10T11:58:57;7.97;;;4.40;;
60502;SDS011;51448;51.660;5.824;2023-06-10T12:01:55;7.22;;;4.28;;
60502;SDS011;51448;51.660;5.824;2023-06-10T12:04:44;9.30;;;4.30;;
60502;SDS011;51448;51.660;5.824;2023-06-10T12:07:32;6.82;;;4.50;;
60502;SDS011;51448;51.660;5.824;2023-06-10T12:10:20;8.07;;;4.72;;
60502;SDS011;51448;51.660;5.824;2023-06-10T12:13:13;8.38;;;4.35;;
60502;SDS011;51448;51.660;5.824;2023-06-10T12:16:08;8.23;;;4.28;;
60502;SDS011;51448;51.660;5.824;2023-06-10T12:19:03;8.10;;;4.20;;
60502;SDS011;51448;51.660;5.824;2023-06-10T12:21:53;6.70;;;4.38;;
60502;SDS011;51448;51.660;5.824;2023-06-10T12:24:44;6.60;;;4.15;;
60502;SDS011;51448;51.660;5.824;2023-06-10T12:27:33;6.70;;;4.28;;
60502;SDS011;51448;51.660;5.824;2023-06-10T12:30:24;7.03;;;4.17;;
60502;SDS011;51448;51.660;5.824;2023-06-10T12:33:18;8.82;;;4.03;;
60502;SDS011;51448;51.660;5.824;2023-06-10T12:36:15;7.65;;;4.35;;
60502;SDS011;51448;51.660;5.824;2023-06-10T12:39:04;6.38;;;4.25;;
60502;SDS011;51448;51.660;5.824;2023-06-10T12:41:52;7.10;;;4.20;;
60502;SDS011;51448;51.660;5.824;2023-06-10T12:44:41;8.70;;;4.30;;
60502;SDS011;51448;51.660;5.824;2023-06-10T12:47:30;6.88;;;4.10;;
60502;SDS011;51448;51.660;5.824;2023-06-10T12:50:20;10.38;;;4.10;;
60502;SDS011;51448;51.660;5.824;2023-06-10T12:53:08;8.10;;;4.85;;
60502;SDS011;51448;51.660;5.824;2023-06-10T12:56:01;9.32;;;4.50;;
60502;SDS011;51448;51.660;5.824;2023-06-10T12:58:49;7.45;;;4.32;;
60502;SDS011;51448;51.660;5.824;2023-06-10T13:01:37;7.25;;;4.20;;
60502;SDS011;51448;51.660;5.824;2023-06-10T13:04:26;9.60;;;4.05;;
60502;SDS011;51448;51.660;5.824;2023-06-10T13:07:14;7.80;;;4.60;;
60502;SDS011;51448;51.660;5.824;2023-06-10T13:10:03;7.15;;;4.57;;
60502;SDS011;51448;51.660;5.824;2023-06-10T13:12:51;5.97;;;3.85;;
60502;SDS011;51448;51.660;5.824;2023-06-10T13:15:41;7.32;;;4.53;;
60502;SDS011;51448;51.660;5.824;2023-06-10T13:18:30;7.10;;;4.40;;
60502;SDS011;51448;51.660;5.824;2023-06-10T13:21:24;9.20;;;4.50;;
60502;SDS011;51448;51.660;5.824;2023-06-10T13:24:12;8.65;;;4.53;;
60502;SDS011;51448;51.660;5.824;2023-06-10T13:27:00;7.82;;;4.18;;
60502;SDS011;51448;51.660;5.824;2023-06-10T13:29:49;7.20;;;4.05;;
60502;SDS011;51448;51.660;5.824;2023-06-10T13:32:37;6.88;;;4.20;;
60502;SDS011;51448;51.660;5.824;2023-06-10T13:35:25;6.55;;;4.13;;
60502;SDS011;51448;51.660;5.824;2023-06-10T13:38:12;7.30;;;4.25;;
60502;SDS011;51448;51.660;5.824;2023-06-10T13:41:00;8.10;;;4.50;;
60502;SDS011;51448;51.660;5.824;2023-06-10T13:43:51;7.03;;;4.38;;
60502;SDS011;51448;51.660;5.824;2023-06-10T13:46:39;6.57;;;3.70;;
60502;SDS011;51448;51.660;5.824;2023-06-10T13:49:27;7.32;;;4.25;;
60502;SDS011;51448;51.660;5.824;2023-06-10T13:52:15;6.40;;;3.90;;
60502;SDS011;51448;51.660;5.824;2023-06-10T13:55:03;6.60;;;3.85;;
60502;SDS011;51448;51.660;5.824;2023-06-10T13:57:51;5.20;;;3.85;;
60502;SDS011;51448;51.660;5.824;2023-06-10T14:00:39;7.30;;;3.45;;
60502;SDS011;51448;51.660;5.824;2023-06-10T14:03:27;6.45;;;4.10;;
60502;SDS011;51448;51.660;5.824;2023-06-10T14:06:15;6.03;;;4.20;;
60502;SDS011;51448;51.660;5.824;2023-06-10T14:09:05;6.35;;;4.20;;
60502;SDS011;51448;51.660;5.824;2023-06-10T14:11:53;7.20;;;4.22;;
60502;SDS011;51448;51.660;5.824;2023-06-10T14:14:41;7.45;;;3.90;;
60502;SDS011;51448;51.660;5.824;2023-06-10T14:17:29;6.93;;;4.10;;
60502;SDS011;51448;51.660;5.824;2023-06-10T14:20:17;6.80;;;4.20;;
60502;SDS011;51448;51.660;5.824;2023-06-10T14:23:05;6.25;;;4.40;;
60502;SDS011;51448;51.660;5.824;2023-06-10T14:25:53;10.20;;;4.40;;
60502;SDS011;51448;51.660;5.824;2023-06-10T14:28:40;6.95;;;3.95;;
60502;SDS011;51448;51.660;5.824;2023-06-10T14:31:28;7.65;;;3.88;;
60502;SDS011;51448;51.660;5.824;2023-06-10T14:34:16;6.25;;;3.92;;
60502;SDS011;51448;51.660;5.824;2023-06-10T14:37:04;5.78;;;4.15;;
60502;SDS011;51448;51.660;5.824;2023-06-10T14:39:54;7.85;;;4.30;;
60502;SDS011;51448;51.660;5.824;2023-06-10T14:42:48;8.32;;;4.22;;
60502;SDS011;51448;51.660;5.824;2023-06-10T14:45:44;6.40;;;4.07;;
60502;SDS011;51448;51.660;5.824;2023-06-10T14:48:35;6.53;;;4.03;;
60502;SDS011;51448;51.660;5.824;2023-06-10T14:51:23;7.20;;;4.35;;
60502;SDS011;51448;51.660;5.824;2023-06-10T14:54:11;9.73;;;4.20;;
60502;SDS011;51448;51.660;5.824;2023-06-10T14:56:59;6.35;;;4.10;;
60502;SDS011;51448;51.660;5.824;2023-06-10T14:59:47;6.82;;;4.03;;
60502;SDS011;51448;51.660;5.824;2023-06-10T15:02:34;6.40;;;3.90;;
60502;SDS011;51448;51.660;5.824;2023-06-10T15:05:23;8.10;;;4.70;;
60502;SDS011;51448;51.660;5.824;2023-06-10T15:08:11;7.47;;;4.65;;
60502;SDS011;51448;51.660;5.824;2023-06-10T15:10:59;6.13;;;4.22;;
60502;SDS011;51448;51.660;5.824;2023-06-10T15:13:48;6.47;;;3.83;;
60502;SDS011;51448;51.660;5.824;2023-06-10T15:16:37;7.32;;;4.20;;
60502;SDS011;51448;51.660;5.824;2023-06-10T15:19:25;6.75;;;4.47;;
60502;SDS011;51448;51.660;5.824;2023-06-10T15:22:14;7.25;;;4.05;;
60502;SDS011;51448;51.660;5.824;2023-06-10T15:25:02;9.10;;;4.50;;
60502;SDS011;51448;51.660;5.824;2023-06-10T15:28:10;6.80;;;4.63;;
60502;SDS011;51448;51.660;5.824;2023-06-10T15:30:58;6.57;;;4.20;;
60502;SDS011;51448;51.660;5.824;2023-06-10T15:33:46;5.30;;;4.20;;
60502;SDS011;51448;51.660;5.824;2023-06-10T15:36:34;8.02;;;4.28;;
60502;SDS011;51448;51.660;5.824;2023-06-10T15:39:23;6.50;;;3.85;;
60502;SDS011;51448;51.660;5.824;2023-06-10T15:42:12;6.75;;;4.32;;
60502;SDS011;51448;51.660;5.824;2023-06-10T15:45:00;7.95;;;4.60;;
60502;SDS011;51448;51.660;5.824;2023-06-10T15:47:48;11.00;;;4.60;;
60502;SDS011;51448;51.660;5.824;2023-06-10T15:50:36;7.63;;;4.35;;
60502;SDS011;51448;51.660;5.824;2023-06-10T15:53:24;7.15;;;4.25;;
60502;SDS011;51448;51.660;5.824;2023-06-10T15:56:11;10.02;;;4.47;;
60502;SDS011;51448;51.660;5.824;2023-06-10T15:59:00;8.60;;;4.60;;
60502;SDS011;51448;51.660;5.824;2023-06-10T16:01:48;6.75;;;4.03;;
60502;SDS011;51448;51.660;5.824;2023-06-10T16:04:36;7.03;;;4.30;;
60502;SDS011;51448;51.660;5.824;2023-06-10T16:07:23;6.82;;;4.13;;
60502;SDS011;51448;51.660;5.824;2023-06-10T16:10:11;7.78;;;4.43;;
60502;SDS011;51448;51.660;5.824;2023-06-10T16:12:59;7.90;;;4.68;;
60502;SDS011;51448;51.660;5.824;2023-06-10T16:15:47;7.28;;;4.80;;
60502;SDS011;51448;51.660;5.824;2023-06-10T16:18:35;7.60;;;4.35;;
60502;SDS011;51448;51.660;5.824;2023-06-10T16:21:24;7.63;;;4.18;;
60502;SDS011;51448;51.660;5.824;2023-06-10T16:24:11;6.57;;;4.43;;
60502;SDS011;51448;51.660;5.824;2023-06-10T16:27:00;7.47;;;4.20;;
60502;SDS011;51448;51.660;5.824;2023-06-10T16:29:49;7.70;;;4.22;;
60502;SDS011;51448;51.660;5.824;2023-06-10T16:32:37;7.78;;;4.90;;
60502;SDS011;51448;51.660;5.824;2023-06-10T16:35:25;7.05;;;4.15;;
60502;SDS011;51448;51.660;5.824;2023-06-10T16:38:13;7.40;;;4.13;;
60502;SDS011;51448;51.660;5.824;2023-06-10T16:41:01;6.15;;;4.32;;
60502;SDS011;51448;51.660;5.824;2023-06-10T16:43:48;8.63;;;4.30;;
60502;SDS011;51448;51.660;5.824;2023-06-10T16:46:36;5.70;;;4.18;;
60502;SDS011;51448;51.660;5.824;2023-06-10T16:49:24;8.45;;;4.38;;
60502;SDS011;51448;51.660;5.824;2023-06-10T16:52:12;7.70;;;4.00;;
60502;SDS011;51448;51.660;5.824;2023-06-10T16:55:00;7.43;;;4.28;;
60502;SDS011;51448;51.660;5.824;2023-06-10T16:57:48;10.43;;;4.07;;
60502;SDS011;51448;51.660;5.824;2023-06-10T17:00:36;5.63;;;4.07;;
60502;SDS011;51448;51.660;5.824;2023-06-10T17:03:24;6.65;;;4.35;;
60502;SDS011;51448;51.660;5.824;2023-06-10T17:06:12;6.13;;;4.22;;
60502;SDS011;51448;51.660;5.824;2023-06-10T17:09:00;6.30;;;4.88;;
60502;SDS011;51448;51.660;5.824;2023-06-10T17:11:48;6.47;;;4.45;;